Leopolis, Wisconsin
Current Conditions -  °F | °C
As of 10:35 AM on Friday 24 Oct 2014 (Local Time) from KCLI Reporting Station
Haze Haze  
Wind Chill: 46°   Ceiling: 300
Heat Index: 46°   Visibility: 2mi
Dew Point: 46°   Wind: 3mph
Humidity: 100%   Direction: 220°SW
Pressure: 30.02"   Gusts: NA
Location:  44.77°N, 88.84°W
Report Text: KCLI 241535Z AUTO 22003KT 2SM BR OVC003 08/08 A3002 RMK AO2
Loading
Personal Weather Stations






























Interactive Weather Map
Tropical Storm Tracking
New forecast layout! Learn more

10-Day Weather Forecast

Advertisements
Track Severe Weather on mobile